Time;durP1;ratioP1;P1;durP2;ratioP2;P2;SDS_P1;SDS_P2;PMS_P1;PMS_P2;Temp;Humidity;BMP_temperature;BMP_pressure;BME280_temperature;BME280_humidity;BME280_pressure;Samples;Min_cycle;Max_cycle;Signal;HPM_P1;HPM_P2
2022/09/21 00:00:33;;;;;;;2.78;2.58;;;12.20;99.90;;;;;;6068635;23;20204;-75
2022/09/21 00:03:00;;;;;;;3.80;3.22;;;12.20;99.90;;;;;;6068836;23;20204;-77
2022/09/21 00:05:27;;;;;;;3.35;3.05;;;12.20;99.90;;;;;;6067634;23;20204;-75
2022/09/21 00:07:55;;;;;;;6.07;3.22;;;12.20;99.90;;;;;;6069464;23;20211;-76
2022/09/21 00:10:22;;;;;;;5.00;3.08;;;12.20;99.90;;;;;;6068423;23;20200;-76
2022/09/21 00:12:49;;;;;;;4.88;3.20;;;12.20;99.90;;;;;;6067534;23;20208;-76
2022/09/21 00:15:28;;;;;;;3.30;3.10;;;12.20;99.90;;;;;;6068782;23;20270;-76
2022/09/21 00:17:56;;;;;;;3.67;3.03;;;12.20;99.90;;;;;;6068263;23;20268;-76
2022/09/21 00:20:25;;;;;;;3.20;3.00;;;12.20;99.90;;;;;;6068414;23;20230;-76
2022/09/21 00:22:52;;;;;;;3.72;3.40;;;12.20;99.90;;;;;;6067586;23;20501;-76
2022/09/21 00:25:20;;;;;;;4.25;3.42;;;12.20;99.90;;;;;;6068427;23;20516;-76
2022/09/21 00:27:50;;;;;;;4.53;4.13;;;12.10;99.90;;;;;;6068154;23;20204;-76
2022/09/21 00:30:21;;;;;;;4.18;2.50;;;12.20;99.90;;;;;;6068210;23;20224;-76
2022/09/21 00:32:48;;;;;;;3.42;3.13;;;12.20;99.90;;;;;;6067352;23;20472;-76
2022/09/21 00:35:15;;;;;;;3.50;3.20;;;12.20;99.90;;;;;;6068341;23;20222;-76
2022/09/21 00:37:42;;;;;;;2.55;2.40;;;12.20;99.90;;;;;;6068134;23;20204;-77
2022/09/21 00:40:19;;;;;;;4.95;3.28;;;12.20;99.90;;;;;;6068608;23;20204;-76
2022/09/21 00:42:46;;;;;;;3.17;2.88;;;12.10;99.90;;;;;;6067588;23;20222;-76
2022/09/21 00:45:19;;;;;;;3.80;3.38;;;12.10;99.90;;;;;;6067861;23;20212;-77
2022/09/21 00:47:53;;;;;;;6.60;3.97;;;12.10;99.90;;;;;;6066403;23;20215;-77
2022/09/21 00:50:23;;;;;;;3.20;2.90;;;12.10;99.90;;;;;;6068475;23;20211;-77
2022/09/21 00:52:53;;;;;;;3.92;3.25;;;12.10;99.90;;;;;;6067587;23;20204;-76
2022/09/21 00:55:25;;;;;;;3.80;3.50;;;12.10;99.90;;;;;;6068762;23;20641;-76
2022/09/21 00:57:55;;;;;;;3.30;3.03;;;12.10;99.90;;;;;;6067501;23;20211;-77
2022/09/21 01:00:23;;;;;;;3.30;3.03;;;12.00;99.90;;;;;;6068152;23;20204;-78
2022/09/21 01:02:51;;;;;;;3.13;2.83;;;12.10;99.90;;;;;;6067004;23;20223;-77
2022/09/21 01:05:18;;;;;;;3.13;2.85;;;12.00;99.90;;;;;;6068703;23;20208;-77
2022/09/21 01:07:49;;;;;;;4.47;3.65;;;12.00;99.90;;;;;;6067360;23;20241;-76
2022/09/21 01:10:19;;;;;;;3.50;3.20;;;12.00;99.90;;;;;;6067531;23;20716;-77
2022/09/21 01:13:09;;;;;;;3.33;3.10;;;12.00;99.90;;;;;;6066997;23;20204;-76
2022/09/21 01:15:45;;;;;;;4.60;3.58;;;11.90;99.90;;;;;;6067873;23;20275;-76
2022/09/21 01:18:21;;;;;;;3.25;2.95;;;11.90;99.90;;;;;;6067388;23;20212;-76
2022/09/21 01:21:08;;;;;;;2.60;2.40;;;11.90;99.90;;;;;;6067275;23;20533;-76
2022/09/21 01:23:55;;;;;;;3.50;3.20;;;11.90;99.90;;;;;;6067375;23;20263;-76
2022/09/21 01:26:31;;;;;;;3.50;3.20;;;11.90;99.90;;;;;;6055935;23;20620;-76
2022/09/21 01:29:12;;;;;;;3.30;3.10;;;11.80;99.90;;;;;;6067892;23;20224;-76
2022/09/21 01:31:50;;;;;;;6.15;3.00;;;11.80;99.90;;;;;;6068763;23;20716;-76
2022/09/21 01:34:37;;;;;;;3.05;2.78;;;11.80;99.90;;;;;;6068220;23;20204;-78
2022/09/21 01:37:09;;;;;;;3.40;3.10;;;11.80;99.90;;;;;;6068322;23;20251;-76
2022/09/21 01:39:39;;;;;;;3.80;3.55;;;11.80;99.90;;;;;;6068495;23;20200;-76
2022/09/21 01:42:08;;;;;;;3.58;3.08;;;11.80;99.90;;;;;;6068539;23;20231;-76
2022/09/21 01:44:39;;;;;;;5.35;4.85;;;11.80;99.90;;;;;;6067435;23;20208;-77
2022/09/21 01:47:11;;;;;;;4.50;2.95;;;11.80;99.90;;;;;;6052542;23;20200;-76
2022/09/21 01:49:41;;;;;;;4.28;3.30;;;11.80;99.90;;;;;;6066975;23;20204;-76
2022/09/21 01:52:14;;;;;;;4.22;3.10;;;11.80;99.90;;;;;;6066809;23;20263;-76
2022/09/21 01:54:47;;;;;;;3.60;3.30;;;11.80;99.90;;;;;;6067076;23;20196;-77
2022/09/21 01:57:22;;;;;;;4.13;3.65;;;11.80;99.90;;;;;;6067410;23;20259;-78
2022/09/21 01:59:53;;;;;;;3.08;2.78;;;11.70;99.90;;;;;;6068761;23;20537;-76
2022/09/21 02:02:30;;;;;;;5.20;3.47;;;11.70;99.90;;;;;;6070147;23;20204;-78
2022/09/21 02:04:57;;;;;;;4.72;3.53;;;11.70;99.90;;;;;;6069686;23;20529;-76
2022/09/21 02:07:25;;;;;;;3.35;2.85;;;11.70;99.90;;;;;;6070520;23;20494;-76
2022/09/21 02:09:53;;;;;;;3.08;2.83;;;11.70;99.90;;;;;;6068329;23;20648;-76
2022/09/21 02:12:20;;;;;;;3.50;3.22;;;11.70;99.90;;;;;;6070461;23;20204;-77
2022/09/21 02:14:49;;;;;;;3.40;2.83;;;11.70;99.90;;;;;;6069598;23;20200;-76
2022/09/21 02:17:33;;;;;;;3.40;3.10;;;11.60;99.90;;;;;;6069682;23;20270;-76
2022/09/21 02:20:09;;;;;;;3.35;2.70;;;11.60;99.90;;;;;;6069596;23;20196;-77
2022/09/21 02:22:46;;;;;;;6.18;4.10;;;11.60;99.90;;;;;;6068924;23;20255;-76
2022/09/21 02:25:18;;;;;;;3.13;2.83;;;11.60;99.90;;;;;;6069843;23;20204;-76
2022/09/21 02:27:53;;;;;;;6.80;3.63;;;11.60;99.90;;;;;;6068817;23;20212;-77
2022/09/21 02:30:22;;;;;;;4.80;3.75;;;11.60;99.90;;;;;;6069654;23;20210;-75
2022/09/21 02:32:59;;;;;;;4.18;3.78;;;11.60;99.90;;;;;;6068857;23;20251;-77
2022/09/21 02:35:37;;;;;;;2.80;2.60;;;11.60;99.90;;;;;;6069738;23;20218;-76
2022/09/21 02:38:11;;;;;;;3.47;3.25;;;11.60;99.90;;;;;;6069047;23;20273;-76
2022/09/21 02:40:44;;;;;;;4.18;3.75;;;11.60;99.90;;;;;;6069628;23;20287;-76
2022/09/21 02:43:21;;;;;;;2.92;2.70;;;11.60;99.90;;;;;;6056790;23;20208;-76
2022/09/21 02:45:52;;;;;;;3.30;3.05;;;11.60;99.90;;;;;;6085705;23;20262;-77
2022/09/21 02:48:26;;;;;;;3.70;3.40;;;11.60;99.90;;;;;;6069260;23;20200;-76
2022/09/21 02:50:56;;;;;;;3.60;3.30;;;11.60;99.90;;;;;;6070016;23;20214;-75
2022/09/21 02:53:28;;;;;;;3.60;3.30;;;11.60;99.90;;;;;;6069343;23;20264;-76
2022/09/21 02:56:00;;;;;;;4.70;3.53;;;11.50;99.90;;;;;;6069628;23;20214;-77
2022/09/21 02:58:30;;;;;;;3.65;3.35;;;11.60;99.90;;;;;;6069654;23;20329;-75
2022/09/21 03:00:59;;;;;;;4.65;3.30;;;11.60;99.90;;;;;;6069651;23;20283;-76
2022/09/21 03:03:27;;;;;;;3.15;2.30;;;11.50;99.90;;;;;;6068933;23;20287;-76
2022/09/21 03:05:58;;;;;;;3.00;2.80;;;11.60;99.90;;;;;;6069564;23;20196;-76
2022/09/21 03:08:25;;;;;;;4.68;3.22;;;11.60;99.90;;;;;;6069425;23;20238;-75
2022/09/21 03:10:53;;;;;;;2.90;2.70;;;11.50;99.90;;;;;;6069256;23;20220;-76
2022/09/21 03:13:20;;;;;;;2.78;2.58;;;11.50;99.90;;;;;;6068843;23;20211;-75
2022/09/21 03:15:47;;;;;;;3.00;2.80;;;11.50;99.90;;;;;;6068845;23;20276;-75
2022/09/21 03:18:17;;;;;;;3.10;2.80;;;11.40;99.90;;;;;;6068953;23;20455;-76
2022/09/21 03:20:46;;;;;;;3.60;3.03;;;11.40;99.90;;;;;;6068929;23;20257;-78
2022/09/21 03:23:13;;;;;;;3.45;3.15;;;11.40;99.90;;;;;;6068389;23;20212;-77
2022/09/21 03:25:43;;;;;;;2.92;2.63;;;11.40;99.90;;;;;;6069532;23;20196;-76
2022/09/21 03:28:11;;;;;;;3.00;2.70;;;11.40;99.90;;;;;;6053032;23;20279;-77
2022/09/21 03:30:38;;;;;;;2.95;2.75;;;11.40;99.90;;;;;;6069494;23;20716;-77
2022/09/21 03:33:05;;;;;;;6.97;3.17;;;11.40;99.90;;;;;;6068074;23;20278;-77
2022/09/21 03:35:33;;;;;;;2.75;2.55;;;11.40;99.90;;;;;;6068601;23;20196;-76
2022/09/21 03:38:05;;;;;;;4.18;3.63;;;11.40;99.90;;;;;;6069986;23;20234;-78
2022/09/21 03:40:33;;;;;;;2.95;2.70;;;11.40;99.90;;;;;;6068847;23;20196;-77
2022/09/21 03:43:00;;;;;;;2.97;2.67;;;11.40;99.90;;;;;;6068464;23;20228;-77
2022/09/21 03:45:27;;;;;;;3.55;3.25;;;11.40;99.90;;;;;;6067581;23;20208;-78
2022/09/21 03:47:56;;;;;;;3.05;2.85;;;11.40;99.90;;;;;;6066712;23;20227;-78
2022/09/21 03:50:27;;;;;;;3.78;3.20;;;11.40;99.90;;;;;;6068157;23;20215;-78
2022/09/21 03:52:54;;;;;;;3.00;2.70;;;11.40;99.90;;;;;;6056943;23;20259;-78
2022/09/21 03:55:22;;;;;;;3.15;2.95;;;11.40;99.90;;;;;;6068235;23;20208;-77
2022/09/21 03:57:49;;;;;;;6.70;3.38;;;11.40;99.90;;;;;;6067792;23;20196;-77
2022/09/21 04:00:16;;;;;;;3.60;3.30;;;11.40;99.90;;;;;;6068493;23;20268;-78
2022/09/21 04:02:44;;;;;;;2.70;2.50;;;11.40;99.90;;;;;;6068320;23;20204;-77
2022/09/21 04:05:17;;;;;;;3.53;3.22;;;11.30;99.90;;;;;;6069095;23;20232;-77
2022/09/21 04:07:49;;;;;;;3.30;2.75;;;11.40;99.90;;;;;;6068452;23;20196;-77
2022/09/21 04:10:18;;;;;;;2.42;2.22;;;11.40;99.90;;;;;;6069026;23;20266;-77
2022/09/21 04:12:47;;;;;;;3.00;2.80;;;11.40;99.90;;;;;;6068417;23;20204;-78
2022/09/21 04:15:18;;;;;;;4.63;3.38;;;11.30;99.90;;;;;;6068969;23;20573;-77
2022/09/21 04:17:45;;;;;;;4.10;3.47;;;11.30;99.90;;;;;;6068698;23;20290;-77
2022/09/21 04:20:17;;;;;;;4.95;3.90;;;11.30;99.90;;;;;;6068280;23;20196;-77
2022/09/21 04:22:45;;;;;;;5.43;4.00;;;11.30;99.90;;;;;;6067149;23;20208;-77
2022/09/21 04:25:13;;;;;;;4.20;3.85;;;11.30;99.90;;;;;;6068706;23;20204;-77
2022/09/21 04:27:41;;;;;;;3.38;3.08;;;11.30;99.90;;;;;;6053220;23;20259;-78
2022/09/21 04:30:11;;;;;;;4.47;3.50;;;11.20;99.90;;;;;;6068302;23;20219;-77
2022/09/21 04:32:39;;;;;;;3.95;3.58;;;11.30;99.90;;;;;;6067773;23;20212;-77
2022/09/21 04:35:06;;;;;;;3.10;2.85;;;11.20;99.90;;;;;;6068832;23;20689;-77
2022/09/21 04:37:33;;;;;;;4.47;3.10;;;11.30;99.90;;;;;;6068370;23;20208;-77
2022/09/21 04:40:01;;;;;;;5.10;2.60;;;11.20;99.90;;;;;;6068502;23;20203;-78
2022/09/21 04:42:28;;;;;;;5.50;3.53;;;11.20;99.90;;;;;;6068202;23;20661;-77
2022/09/21 04:44:55;;;;;;;3.75;3.20;;;11.20;99.90;;;;;;6067938;23;20660;-77
2022/09/21 04:47:24;;;;;;;3.33;3.00;;;11.20;99.90;;;;;;6068564;23;20212;-77
2022/09/21 04:50:02;;;;;;;3.95;3.58;;;11.20;99.90;;;;;;6068003;23;20205;-77
2022/09/21 04:52:29;;;;;;;2.83;2.63;;;11.10;99.90;;;;;;6067649;23;20215;-77
2022/09/21 04:54:56;;;;;;;5.03;3.65;;;11.10;99.90;;;;;;6068218;23;20204;-77
2022/09/21 04:57:23;;;;;;;3.38;2.90;;;11.10;99.90;;;;;;6068362;23;20204;-77
2022/09/21 04:59:50;;;;;;;2.97;2.78;;;11.10;99.90;;;;;;6067767;23;20627;-77
2022/09/21 05:02:17;;;;;;;2.20;2.08;;;11.10;99.90;;;;;;6067863;23;20218;-77
2022/09/21 05:04:45;;;;;;;4.25;3.75;;;11.10;99.90;;;;;;6067970;23;20228;-77
2022/09/21 05:07:12;;;;;;;4.50;4.05;;;11.10;99.90;;;;;;6067926;23;20208;-77
2022/09/21 05:12:26;;;;;;;3.60;3.30;;;11.10;99.90;;;;;;6068550;23;20271;-78
2022/09/21 05:14:54;;;;;;;3.50;2.97;;;11.10;99.90;;;;;;6067590;23;20279;-77
2022/09/21 05:17:24;;;;;;;3.25;3.03;;;11.10;99.90;;;;;;6068547;23;20699;-77
2022/09/21 05:19:57;;;;;;;3.38;2.92;;;11.10;99.90;;;;;;6067430;23;20200;-77
2022/09/21 05:22:24;;;;;;;2.70;2.50;;;11.10;99.90;;;;;;6068116;23;20260;-77
2022/09/21 05:24:54;;;;;;;4.20;3.20;;;11.10;99.90;;;;;;6066998;23;20275;-77
2022/09/21 05:27:30;;;;;;;2.53;2.33;;;11.10;99.90;;;;;;6069377;23;20208;-78
2022/09/21 05:29:58;;;;;;;5.10;2.97;;;11.10;99.90;;;;;;6068260;23;20591;-77
2022/09/21 05:32:37;;;;;;;3.25;2.97;;;11.10;99.90;;;;;;6068385;23;20243;-77
2022/09/21 05:35:12;;;;;;;4.70;4.30;;;11.10;99.90;;;;;;6068069;23;20256;-76
2022/09/21 05:37:47;;;;;;;3.15;2.85;;;11.10;99.90;;;;;;6067939;23;20204;-77
2022/09/21 05:40:15;;;;;;;3.83;3.53;;;11.10;99.90;;;;;;6067758;23;20203;-77
2022/09/21 05:42:42;;;;;;;4.10;3.55;;;11.10;99.90;;;;;;6067775;23;20283;-77
2022/09/21 05:45:14;;;;;;;3.33;3.03;;;11.10;99.90;;;;;;6067476;23;20374;-77
2022/09/21 05:47:53;;;;;;;3.30;3.00;;;11.10;99.90;;;;;;6068163;23;20207;-77
2022/09/21 05:51:00;;;;;;;3.10;2.88;;;11.10;99.90;;;;;;6053205;23;20219;-77
2022/09/21 05:53:53;;;;;;;2.92;2.70;;;11.10;99.90;;;;;;6053297;23;20211;-75
2022/09/21 05:56:36;;;;;;;4.30;3.40;;;11.10;99.90;;;;;;6067385;23;20215;-78
2022/09/21 05:59:23;;;;;;;3.45;3.15;;;11.20;99.90;;;;;;6067308;23;20207;-75
2022/09/21 06:01:59;;;;;;;5.32;2.90;;;11.20;99.90;;;;;;6068463;23;20207;-76
2022/09/21 06:04:30;;;;;;;5.70;2.95;;;11.30;99.90;;;;;;6066792;23;20582;-77
2022/09/21 06:06:58;;;;;;;3.65;3.35;;;11.30;99.90;;;;;;6053286;23;20199;-75
2022/09/21 06:09:26;;;;;;;3.13;2.72;;;11.40;99.90;;;;;;6067316;23;20678;-76
2022/09/21 06:11:55;;;;;;;6.68;3.70;;;11.40;99.90;;;;;;6053688;23;20204;-76
2022/09/21 06:14:24;;;;;;;4.10;3.22;;;11.40;99.90;;;;;;6067443;23;20516;-78
2022/09/21 06:16:52;;;;;;;4.88;4.10;;;11.50;99.90;;;;;;6067462;23;20235;-78
2022/09/21 06:19:19;;;;;;;4.65;4.20;;;11.50;99.90;;;;;;6067578;23;20230;-77
2022/09/21 06:21:46;;;;;;;5.45;3.90;;;11.60;99.90;;;;;;6068313;23;20283;-77
2022/09/21 06:24:14;;;;;;;4.10;3.80;;;11.60;99.90;;;;;;6067273;23;20212;-77
2022/09/21 06:26:41;;;;;;;2.90;2.70;;;11.70;99.90;;;;;;6067958;23;20287;-77
2022/09/21 06:29:09;;;;;;;3.05;2.85;;;11.70;99.90;;;;;;6068214;23;20660;-77
2022/09/21 06:31:36;;;;;;;3.45;3.15;;;11.70;99.90;;;;;;6066283;23;20216;-77
2022/09/21 06:34:03;;;;;;;3.45;2.97;;;11.80;99.90;;;;;;6066946;23;20267;-76
2022/09/21 06:36:51;;;;;;;5.13;3.72;;;11.80;99.90;;;;;;6066211;23;20228;-77
2022/09/21 06:39:20;;;;;;;4.40;4.00;;;11.90;99.90;;;;;;6059438;23;20205;-78
2022/09/21 06:41:46;;;;;;;3.55;3.05;;;11.90;99.90;;;;;;6068082;23;20623;-77
2022/09/21 06:44:14;;;;;;;4.15;3.75;;;12.00;99.90;;;;;;6067122;23;20243;-77
2022/09/21 06:46:41;;;;;;;4.60;3.22;;;12.00;99.90;;;;;;6068611;23;20212;-77
2022/09/21 06:49:07;;;;;;;3.65;3.35;;;12.00;99.90;;;;;;6070018;23;20208;-78
2022/09/21 06:51:35;;;;;;;4.05;3.75;;;12.10;99.90;;;;;;6068801;23;20219;-78
2022/09/21 06:54:02;;;;;;;3.63;3.33;;;12.10;99.90;;;;;;6069438;23;20262;-77
2022/09/21 06:56:33;;;;;;;3.92;2.80;;;12.20;99.90;;;;;;6069102;23;20227;-77
2022/09/21 06:59:00;;;;;;;6.15;3.88;;;12.20;99.90;;;;;;6069316;23;20204;-77
2022/09/21 07:01:27;;;;;;;5.75;3.63;;;12.30;99.90;;;;;;6069064;23;20521;-76
2022/09/21 07:04:30;;;;;;;4.20;3.38;;;12.30;99.90;;;;;;6069368;23;20248;-76
2022/09/21 07:06:57;;;;;;;4.03;3.63;;;12.40;99.90;;;;;;6051990;23;20199;-76
2022/09/21 07:09:27;;;;;;;6.70;5.53;;;12.40;99.90;;;;;;6069527;23;20220;-76
2022/09/21 07:11:59;;;;;;;6.25;5.07;;;12.50;99.90;;;;;;6069477;23;20215;-76
2022/09/21 07:14:26;;;;;;;7.60;6.10;;;12.50;99.90;;;;;;6068898;23;20200;-77
2022/09/21 07:16:56;;;;;;;9.48;6.53;;;12.50;99.90;;;;;;6068837;23;20207;-76
2022/09/21 07:19:23;;;;;;;6.97;6.28;;;12.60;99.90;;;;;;6068978;23;20207;-77
2022/09/21 07:21:51;;;;;;;8.90;6.75;;;12.60;99.90;;;;;;6068417;23;20200;-77
2022/09/21 07:24:18;;;;;;;7.20;5.20;;;12.70;99.90;;;;;;6067782;23;20224;-77
2022/09/21 07:26:45;;;;;;;8.85;4.97;;;12.70;99.90;;;;;;6069858;23;20196;-77
2022/09/21 07:29:18;;;;;;;4.88;4.13;;;12.80;99.90;;;;;;6067714;23;20498;-77
2022/09/21 07:31:45;;;;;;;5.57;5.07;;;12.80;99.90;;;;;;6069261;23;20628;-78
2022/09/21 07:34:12;;;;;;;7.13;4.00;;;12.80;99.90;;;;;;6068102;23;20565;-76
2022/09/21 07:36:39;;;;;;;5.30;4.40;;;12.90;99.90;;;;;;6068912;23;20204;-76
2022/09/21 07:39:08;;;;;;;5.82;5.32;;;12.90;99.90;;;;;;6068384;23;20302;-76
2022/09/21 07:41:35;;;;;;;4.38;3.67;;;13.00;99.90;;;;;;6069391;23;20640;-76
2022/09/21 07:44:02;;;;;;;4.80;4.05;;;13.00;99.90;;;;;;6056759;23;20224;-77
2022/09/21 07:46:33;;;;;;;5.18;4.10;;;13.10;99.90;;;;;;6068689;23;20664;-77
2022/09/21 07:49:00;;;;;;;7.85;4.63;;;13.10;99.90;;;;;;6068685;23;20284;-76
2022/09/21 07:51:30;;;;;;;4.40;3.95;;;13.20;99.90;;;;;;6068054;23;20287;-77
2022/09/21 07:53:57;;;;;;;5.18;4.20;;;13.20;99.90;;;;;;6068966;23;20212;-77
2022/09/21 07:56:25;;;;;;;4.90;4.22;;;13.30;99.90;;;;;;6068732;23;20204;-76
2022/09/21 07:59:06;;;;;;;6.00;4.30;;;13.30;99.90;;;;;;6068829;23;20307;-76
2022/09/21 08:01:39;;;;;;;4.50;4.10;;;13.40;99.90;;;;;;6067351;23;20200;-76
2022/09/21 08:04:10;;;;;;;3.42;3.13;;;13.50;99.90;;;;;;6069405;23;20204;-76
2022/09/21 08:06:38;;;;;;;5.15;3.08;;;13.50;99.90;;;;;;6068965;23;20207;-76
2022/09/21 08:09:07;;;;;;;8.50;4.60;;;13.60;99.90;;;;;;6068624;23;20210;-76
2022/09/21 08:11:36;;;;;;;4.25;3.85;;;13.60;99.90;;;;;;6067671;23;20216;-77
2022/09/21 08:14:04;;;;;;;5.05;3.30;;;13.60;99.90;;;;;;6068759;23;20490;-76
2022/09/21 08:16:32;;;;;;;7.15;3.80;;;13.70;99.90;;;;;;6068841;23;20204;-77
2022/09/21 08:19:01;;;;;;;6.90;3.58;;;13.80;99.90;;;;;;6068930;23;21132;-76
2022/09/21 08:21:28;;;;;;;4.05;3.40;;;13.80;99.90;;;;;;6067905;23;20203;-76
2022/09/21 08:23:55;;;;;;;4.73;3.63;;;13.90;99.90;;;;;;6069040;23;20259;-78
2022/09/21 08:26:23;;;;;;;5.70;3.33;;;13.90;99.90;;;;;;6067904;23;20437;-76
2022/09/21 08:28:53;;;;;;;4.53;3.17;;;14.00;99.90;;;;;;6068903;23;20507;-76
2022/09/21 08:31:22;;;;;;;8.00;4.25;;;14.00;99.90;;;;;;6067609;23;20451;-77
2022/09/21 08:33:53;;;;;;;4.88;3.55;;;14.10;99.90;;;;;;6053809;23;20250;-76
2022/09/21 08:36:24;;;;;;;4.20;3.80;;;14.20;99.90;;;;;;6067669;23;20200;-77
2022/09/21 08:38:51;;;;;;;6.07;5.00;;;14.20;99.90;;;;;;6068484;23;20458;-77
2022/09/21 08:41:22;;;;;;;6.53;4.10;;;14.30;99.90;;;;;;6067610;23;20208;-76
2022/09/21 08:43:52;;;;;;;3.90;3.57;;;14.30;99.90;;;;;;6068268;23;20920;-77
2022/09/21 08:46:22;;;;;;;5.30;4.60;;;14.40;99.90;;;;;;6067522;23;20463;-76
2022/09/21 08:48:54;;;;;;;5.30;4.50;;;14.40;99.90;;;;;;6068416;23;20499;-78
2022/09/21 08:51:27;;;;;;;4.88;3.50;;;14.50;99.90;;;;;;6053419;23;20544;-78
2022/09/21 08:54:03;;;;;;;4.30;3.90;;;14.50;99.90;;;;;;6068073;23;20200;-78
2022/09/21 08:56:31;;;;;;;5.57;4.27;;;14.50;99.90;;;;;;6068168;23;20440;-78
2022/09/21 08:58:58;;;;;;;4.70;3.90;;;14.60;99.90;;;;;;6068456;23;20436;-75
2022/09/21 09:01:38;;;;;;;4.20;3.80;;;14.70;99.90;;;;;;6067827;23;20467;-78
2022/09/21 09:04:27;;;;;;;4.93;3.70;;;14.70;99.90;;;;;;6068682;23;20436;-77
2022/09/21 09:07:07;;;;;;;4.10;3.53;;;14.80;99.90;;;;;;6067415;23;20475;-76
2022/09/21 09:09:47;;;;;;;3.43;3.13;;;14.90;99.90;;;;;;6067716;23;20503;-77
2022/09/21 09:12:32;;;;;;;3.87;3.00;;;14.90;99.90;;;;;;6068375;23;20445;-77
2022/09/21 09:15:26;;;;;;;5.43;3.20;;;15.00;99.90;;;;;;6067969;23;20485;-77
2022/09/21 09:17:59;;;;;;;4.23;3.30;;;15.10;99.90;;;;;;6068044;23;20464;-77
2022/09/21 09:20:31;;;;;;;3.03;2.80;;;15.10;99.90;;;;;;6056547;23;20464;-77
2022/09/21 09:23:06;;;;;;;4.67;2.90;;;15.10;99.90;;;;;;6067074;23;20440;-76
2022/09/21 09:25:37;;;;;;;4.83;3.17;;;15.20;99.90;;;;;;6068506;23;20435;-76
2022/09/21 09:28:20;;;;;;;3.80;2.60;;;15.20;99.90;;;;;;6053267;23;20471;-77
2022/09/21 09:30:56;;;;;;;4.37;2.80;;;15.20;99.90;;;;;;6067449;23;20440;-77
2022/09/21 09:33:26;;;;;;;4.83;3.10;;;15.10;99.90;;;;;;6068304;23;20792;-78
2022/09/21 09:36:00;;;;;;;11.30;4.30;;;15.10;99.90;;;;;;6067243;23;20440;-78
2022/09/21 09:38:35;;;;;;;3.40;2.50;;;15.20;99.90;;;;;;6067639;23;20436;-77
2022/09/21 09:41:20;;;;;;;3.10;2.80;;;15.20;99.90;;;;;;6067897;23;20507;-78
2022/09/21 09:44:01;;;;;;;2.90;2.60;;;15.20;99.90;;;;;;6066903;23;20444;-78
2022/09/21 09:46:35;;;;;;;2.30;2.10;;;15.20;99.90;;;;;;6068417;23;20432;-77
2022/09/21 09:49:20;;;;;;;2.50;2.30;;;15.20;99.90;;;;;;6067594;23;20435;-77
2022/09/21 09:51:48;;;;;;;2.53;2.33;;;15.20;99.90;;;;;;6067351;23;20444;-76
2022/09/21 09:54:20;;;;;;;3.70;2.90;;;15.30;99.90;;;;;;6068037;23;20784;-76
2022/09/21 09:59:38;;;;;;;3.17;2.87;;;15.30;99.90;;;;;;6064332;23;20928;-77
2022/09/21 10:02:08;;;;;;;3.63;2.67;;;15.40;99.90;;;;;;6050834;23;20440;-77
2022/09/21 10:04:35;;;;;;;2.80;2.27;;;15.40;99.90;;;;;;6068272;23;20428;-77
2022/09/21 10:07:02;;;;;;;2.73;2.30;;;15.50;99.90;;;;;;6067488;23;20459;-78
2022/09/21 10:09:32;;;;;;;2.40;2.20;;;15.50;99.90;;;;;;6053606;23;20433;-78
2022/09/21 10:12:15;;;;;;;2.73;2.43;;;15.60;99.90;;;;;;6067071;23;20440;-78
2022/09/21 10:14:52;;;;;;;2.30;1.80;;;15.60;99.90;;;;;;6068199;23;20471;-78
2022/09/21 10:17:19;;;;;;;2.40;2.20;;;15.70;99.90;;;;;;6067530;23;20452;-78
2022/09/21 10:19:47;;;;;;;2.47;2.27;;;15.80;99.90;;;;;;6068174;23;20515;-78
2022/09/21 10:22:18;;;;;;;2.70;2.50;;;15.80;99.90;;;;;;6068773;23;20440;-77
2022/09/21 10:24:49;;;;;;;2.47;2.27;;;15.90;99.90;;;;;;6069740;23;20436;-77
2022/09/21 10:27:20;;;;;;;2.00;1.90;;;16.00;99.90;;;;;;6056985;23;20955;-77
2022/09/21 10:29:48;;;;;;;2.20;2.03;;;16.10;99.90;;;;;;6069761;23;20519;-76
2022/09/21 10:32:21;;;;;;;2.60;1.70;;;16.20;99.90;;;;;;6068915;23;20447;-77
2022/09/21 10:35:14;;;;;;;3.10;1.80;;;16.30;99.90;;;;;;6069689;23;20455;-76
2022/09/21 10:38:08;;;;;;;2.53;1.67;;;16.40;99.90;;;;;;6047713;23;20428;-77
2022/09/21 10:40:38;;;;;;;1.60;1.50;;;16.60;99.90;;;;;;6068895;23;20434;-77
2022/09/21 10:43:05;;;;;;;1.60;1.50;;;16.70;99.90;;;;;;6068915;23;20702;-77
2022/09/21 10:46:00;;;;;;;1.40;1.20;;;16.80;99.90;;;;;;6069922;23;20441;-77
2022/09/21 10:48:28;;;;;;;1.30;1.20;;;16.80;99.90;;;;;;6068995;23;20503;-77
2022/09/21 10:50:57;;;;;;;1.27;1.17;;;16.90;99.90;;;;;;6069864;23;20905;-77
2022/09/21 10:53:27;;;;;;;1.87;1.43;;;16.90;99.90;;;;;;6068449;23;20452;-77
2022/09/21 10:56:02;;;;;;;1.03;1.03;;;16.90;99.90;;;;;;6069839;23;20439;-77
2022/09/21 10:58:30;;;;;;;1.20;1.07;;;16.90;99.90;;;;;;6069258;23;20440;-78
2022/09/21 11:01:10;;;;;;;1.40;1.13;;;16.90;99.90;;;;;;6057760;23;20504;-77
2022/09/21 11:03:45;;;;;;;1.10;1.00;;;16.90;99.90;;;;;;6068551;23;20451;-76
2022/09/21 11:06:16;;;;;;;3.53;1.10;;;17.00;99.90;;;;;;6069706;23;20440;-77
2022/09/21 11:08:55;;;;;;;1.20;1.10;;;17.00;99.90;;;;;;6068798;23;20441;-76
2022/09/21 11:11:41;;;;;;;1.80;1.40;;;17.10;99.90;;;;;;6068830;23;20444;-76
2022/09/21 11:14:19;;;;;;;1.90;1.60;;;17.20;99.90;;;;;;6069265;23;20433;-77
2022/09/21 11:16:52;;;;;;;1.67;1.30;;;17.20;99.90;;;;;;6069680;23;20740;-77
2022/09/21 11:19:28;;;;;;;7.60;1.50;;;17.30;99.90;;;;;;6068445;23;20504;-77
2022/09/21 11:22:02;;;;;;;2.20;1.70;;;17.30;99.90;;;;;;6069561;23;20468;-77
2022/09/21 11:24:36;;;;;;;1.60;1.50;;;17.40;99.90;;;;;;6068847;23;20697;-77
2022/09/21 11:27:10;;;;;;;1.50;1.40;;;17.40;99.90;;;;;;6069460;23;20443;-77
2022/09/21 11:29:50;;;;;;;1.53;1.10;;;17.40;99.90;;;;;;6069196;23;20667;-77
2022/09/21 11:32:39;;;;;;;1.57;1.00;;;17.40;99.90;;;;;;6068349;23;20443;-77
2022/09/21 11:35:26;;;;;;;1.27;1.17;;;17.40;99.90;;;;;;6068783;23;20441;-77
2022/09/21 11:38:08;;;;;;;1.97;0.80;;;17.40;99.90;;;;;;6055700;23;20527;-77
2022/09/21 11:41:08;;;;;;;1.57;1.10;;;17.40;99.90;;;;;;6068904;23;20439;-78
2022/09/21 11:43:53;;;;;;;1.87;0.90;;;17.50;99.90;;;;;;6056132;23;21165;-77
2022/09/21 11:46:26;;;;;;;1.23;1.10;;;17.40;99.90;;;;;;6068637;23;20565;-77
2022/09/21 11:49:04;;;;;;;1.50;1.10;;;17.40;99.90;;;;;;6069256;23;20512;-77
2022/09/21 11:51:43;;;;;;;1.10;1.00;;;17.40;99.90;;;;;;6068344;23;20467;-78
2022/09/21 11:54:40;;;;;;;1.70;1.60;;;17.40;99.90;;;;;;6069170;23;20434;-77
2022/09/21 11:57:17;;;;;;;2.77;2.53;;;17.40;99.90;;;;;;6054666;23;20523;-77
2022/09/21 12:00:17;;;;;;;3.23;2.50;;;17.50;99.90;;;;;;6068430;23;20491;-78
2022/09/21 12:03:22;;;;;;;2.63;2.00;;;17.50;99.90;;;;;;6069503;23;20485;-77
2022/09/21 12:05:58;;;;;;;1.50;1.40;;;17.50;99.90;;;;;;6068877;23;20487;-77
2022/09/21 12:08:46;;;;;;;1.80;1.27;;;17.50;99.90;;;;;;6067621;23;20460;-77
2022/09/21 12:11:23;;;;;;;1.30;1.20;;;17.60;99.90;;;;;;6067698;23;20470;-78
2022/09/21 12:14:01;;;;;;;1.23;1.13;;;17.60;99.90;;;;;;6068378;23;20474;-78
2022/09/21 12:16:38;;;;;;;1.50;1.30;;;17.50;99.90;;;;;;6069010;23;20451;-77
2022/09/21 12:19:16;;;;;;;1.27;1.17;;;17.50;99.90;;;;;;6055803;23;20525;-77
2022/09/21 12:21:49;;;;;;;2.37;1.13;;;17.50;99.90;;;;;;6068142;23;20446;-76
2022/09/21 12:24:20;;;;;;;1.50;1.40;;;17.40;99.90;;;;;;6069018;23;20814;-78
2022/09/21 12:26:54;;;;;;;2.27;1.43;;;17.40;99.90;;;;;;6056089;23;20441;-78
2022/09/21 12:29:26;;;;;;;1.30;1.20;;;17.40;99.90;;;;;;6068977;23;20446;-78
2022/09/21 12:32:02;;;;;;;4.20;3.80;;;17.40;99.90;;;;;;6054378;23;20435;-77
2022/09/21 12:34:35;;;;;;;5.20;2.73;;;17.40;99.90;;;;;;6067456;23;20452;-76
2022/09/21 12:37:09;;;;;;;1.93;1.70;;;17.40;99.90;;;;;;6068055;23;20495;-77
2022/09/21 12:39:43;;;;;;;1.90;1.50;;;17.40;99.90;;;;;;6068663;23;20506;-78
2022/09/21 12:42:24;;;;;;;1.50;1.40;;;17.50;99.90;;;;;;6067901;23;20441;-77
2022/09/21 12:44:56;;;;;;;1.60;1.17;;;17.50;99.90;;;;;;6067385;23;20508;-77
2022/09/21 12:47:32;;;;;;;1.50;1.30;;;17.50;99.90;;;;;;6056658;23;20432;-77
2022/09/21 12:50:05;;;;;;;1.50;1.40;;;17.50;99.90;;;;;;6067826;23;20514;-75
2022/09/21 12:52:33;;;;;;;2.13;1.33;;;17.50;99.90;;;;;;6068328;23;20472;-75
2022/09/21 12:55:14;;;;;;;1.20;1.10;;;17.50;99.90;;;;;;6067344;23;20471;-77
2022/09/21 12:57:52;;;;;;;2.30;1.63;;;17.40;99.90;;;;;;6067925;23;20987;-75
2022/09/21 13:00:22;;;;;;;1.40;1.03;;;17.40;99.90;;;;;;6067883;23;20425;-76
2022/09/21 13:02:55;;;;;;;1.47;1.10;;;17.40;99.90;;;;;;6068497;23;20444;-77
2022/09/21 13:05:35;;;;;;;1.33;1.23;;;17.40;99.90;;;;;;6054611;23;20439;-77
2022/09/21 13:08:11;;;;;;;1.87;1.10;;;17.40;99.90;;;;;;6067013;23;20434;-78
2022/09/21 13:10:48;;;;;;;1.40;1.20;;;17.30;99.90;;;;;;6068223;23;20510;-74
2022/09/21 13:13:26;;;;;;;1.10;1.00;;;17.40;99.90;;;;;;6067323;23;20442;-77
2022/09/21 13:15:53;;;;;;;1.33;1.23;;;17.40;99.90;;;;;;6068528;23;20446;-77
2022/09/21 13:18:33;;;;;;;2.60;1.00;;;17.40;99.90;;;;;;6046678;23;20442;-78
2022/09/21 13:21:01;;;;;;;1.50;1.17;;;17.40;99.90;;;;;;6065571;23;20443;-77